PWSweather.com
Personal Weather Stations
Station Observations
BULSHOEK
ClanwilliamZA

ClanwilliamZA

Lat: -32.003, Lon: 18.782

Elevation: 213

Station Type: Davis Vantage Pro

High Low Average
Temperature 64.5°F18.1°F 41.7°F5.4°F 52.5°F11.4°F
Dew Point 46.4°F8.0°F 31.5°F-0.3°F 39.5°F4.2°F
Winds 5.0 mph -8.0 mph - Calm Calm 1.1 mph 1.8 mph
Wind Gusts 15.0 mph24.1 mph -- 4.3 mph6.9 mph
Humidity 92% 31% 66%
Pressure 30.34 in1027.40 in 30.21 in1023.00 in -
Precipitation 0.04 in1.00 in - -
Hour Temp Dew Point Humidity Winds Wind Gusts Pressure Precip Precip Rate Daily Precip Total
12:00 AM 47.6°F8.7°C 44.5°F6.9°C 89% Calm Calm -- 30.27 in1025.1 mb 0.00 in0.0 mm 0.00 in0.0 mm 0.17 in4.3 mm
12:15 AM 47.3°F8.5°C 44.2°F6.8°C 89% Calm Calm -- 30.27 in1025.1 mb 0.00 in0.0 mm 0.00 in0.0 mm 0.00 in0.0 mm
12:30 AM 47.4°F8.6°C 44.3°F6.8°C 89% Calm Calm -- 30.27 in1025.1 mb 0.00 in0.0 mm 0.00 in0.0 mm 0.00 in0.0 mm
12:45 AM 47.4°F8.6°C 44.3°F6.8°C 89% Calm Calm -- 30.27 in1025.1 mb 0.00 in0.0 mm 0.00 in0.0 mm 0.00 in0.0 mm
01:00 AM 47.0°F8.3°C 43.9°F6.6°C 89% Calm Calm -- 30.27 in1025.1 mb 0.00 in0.0 mm 0.00 in0.0 mm 0.00 in0.0 mm
01:15 AM 46.7°F8.2°C 43.9°F6.6°C 90% Calm Calm -- 30.27 in1025.1 mb 0.00 in0.0 mm 0.00 in0.0 mm 0.00 in0.0 mm
01:30 AM 46.3°F7.9°C 43.5°F6.4°C 90% Calm Calm -- 30.27 in1025.1 mb 0.00 in0.0 mm 0.00 in0.0 mm 0.00 in0.0 mm
01:45 AM 45.9°F7.7°C 43.1°F6.2°C 90% Calm Calm -- 30.27 in1025.1 mb 0.00 in0.0 mm 0.00 in0.0 mm 0.00 in0.0 mm
07:15 AM 42.4°F5.8°C 40.0°F4.4°C 91% Calm Calm -- 30.29 in1025.7 mb 0.01 in0.3 mm 0.02 in0.5 mm 0.01 in0.3 mm
07:30 AM 42.0°F5.6°C 39.6°F4.2°C 91% Calm Calm -- 30.29 in1025.7 mb 0.01 in0.3 mm 0.00 in0.0 mm 0.01 in0.3 mm
07:45 AM 41.7°F5.4°C 39.3°F4.1°C 91% Calm Calm -- 30.30 in1026.1 mb 0.01 in0.3 mm 0.00 in0.0 mm 0.01 in0.3 mm
08:00 AM 41.8°F5.4°C 39.6°F4.2°C 92% Calm Calm -- 30.30 in1026.1 mb 0.01 in0.3 mm 0.00 in0.0 mm 0.01 in0.3 mm
08:15 AM 41.7°F5.4°C 39.6°F4.2°C 92% Calm Calm -- 30.31 in1026.4 mb 0.00 in0.0 mm 0.00 in0.0 mm 0.01 in0.3 mm
08:30 AM 41.8°F5.4°C 39.6°F4.2°C 92% Calm Calm -- 30.32 in1026.8 mb 0.00 in0.0 mm 0.00 in0.0 mm 0.01 in0.3 mm
08:45 AM 41.9°F5.5°C 39.7°F4.3°C 92% Calm Calm -- 30.32 in1026.8 mb 0.00 in0.0 mm 0.00 in0.0 mm 0.01 in0.3 mm
09:00 AM 43.2°F6.2°C 41.0°F5.0°C 92% Calm Calm -- 30.32 in1026.8 mb 0.00 in0.0 mm 0.00 in0.0 mm 0.01 in0.3 mm
09:15 AM 43.5°F6.4°C 41.3°F5.2°C 92% Calm Calm -- 30.33 in1027.1 mb 0.00 in0.0 mm 0.00 in0.0 mm 0.01 in0.3 mm
09:30 AM 45.0°F7.2°C 42.8°F6.0°C 92% Calm Calm 2.0 mph3.2 kmh 30.33 in1027.1 mb 0.00 in0.0 mm 0.00 in0.0 mm 0.01 in0.3 mm
09:45 AM 45.8°F7.7°C 43.6°F6.4°C 92% Calm Calm 1.0 mph1.6 kmh 30.33 in1027.1 mb 0.00 in0.0 mm 0.00 in0.0 mm 0.01 in0.3 mm
10:00 AM 47.7°F8.7°C 45.5°F7.5°C 92% Calm Calm 4.0 mph6.4 kmh 30.34 in1027.4 mb 0.00 in0.0 mm 0.00 in0.0 mm 0.01 in0.3 mm
10:15 AM 50.4°F10.2°C 46.4°F8.0°C 86% 2.0 mph ESE3.2 kmh ESE 6.0 mph9.7 kmh 30.34 in1027.4 mb 0.00 in0.0 mm 0.00 in0.0 mm 0.01 in0.3 mm
10:30 AM 52.7°F11.5°C 45.3°F7.4°C 76% 2.0 mph ESE3.2 kmh ESE 6.0 mph9.7 kmh 30.34 in1027.4 mb 0.00 in0.0 mm 0.00 in0.0 mm 0.01 in0.3 mm
10:45 AM 54.3°F12.4°C 43.6°F6.4°C 67% 2.0 mph E3.2 kmh E 9.0 mph14.5 kmh 30.34 in1027.4 mb 0.00 in0.0 mm 0.00 in0.0 mm 0.01 in0.3 mm
11:00 AM 56.0°F13.3°C 42.7°F5.9°C 61% 2.0 mph SE3.2 kmh SE 9.0 mph14.5 kmh 30.34 in1027.4 mb 0.00 in0.0 mm 0.00 in0.0 mm 0.01 in0.3 mm
11:15 AM 56.9°F13.8°C 40.9°F4.9°C 55% 3.0 mph ESE4.8 kmh ESE 11.0 mph17.7 kmh 30.34 in1027.4 mb 0.00 in0.0 mm 0.00 in0.0 mm 0.01 in0.3 mm
11:30 AM 58.2°F14.6°C 43.0°F6.1°C 57% 4.0 mph ESE6.4 kmh ESE 9.0 mph14.5 kmh 30.34 in1027.4 mb 0.00 in0.0 mm 0.00 in0.0 mm 0.01 in0.3 mm
11:45 AM 59.8°F15.4°C 42.6°F5.9°C 53% 2.0 mph E3.2 kmh E 9.0 mph14.5 kmh 30.33 in1027.1 mb 0.00 in0.0 mm 0.00 in0.0 mm 0.01 in0.3 mm
12:00 PM 59.7°F15.4°C 40.0°F4.4°C 48% 3.0 mph ESE4.8 kmh ESE 15.0 mph24.1 kmh 30.32 in1026.8 mb 0.00 in0.0 mm 0.00 in0.0 mm 0.01 in0.3 mm
12:15 PM 60.5°F15.8°C 39.1°F3.9°C 45% 2.0 mph SE3.2 kmh SE 11.0 mph17.7 kmh 30.32 in1026.8 mb 0.00 in0.0 mm 0.00 in0.0 mm 0.01 in0.3 mm
12:30 PM 60.7°F15.9°C 38.1°F3.4°C 43% 3.0 mph E4.8 kmh E 11.0 mph17.7 kmh 30.31 in1026.4 mb 0.00 in0.0 mm 0.00 in0.0 mm 0.01 in0.3 mm
12:45 PM 61.6°F16.4°C 40.1°F4.5°C 45% 3.0 mph E4.8 kmh E 11.0 mph17.7 kmh 30.31 in1026.4 mb 0.00 in0.0 mm 0.00 in0.0 mm 0.01 in0.3 mm
01:00 PM 60.5°F15.8°C 37.9°F3.3°C 43% 5.0 mph ESE8.0 kmh ESE 12.0 mph19.3 kmh 30.30 in1026.1 mb 0.00 in0.0 mm 0.00 in0.0 mm 0.01 in0.3 mm
01:15 PM 61.1°F16.2°C 38.4°F3.6°C 43% 5.0 mph ESE8.0 kmh ESE 12.0 mph19.3 kmh 30.29 in1025.7 mb 0.00 in0.0 mm 0.00 in0.0 mm 0.01 in0.3 mm
01:30 PM 61.3°F16.3°C 38.0°F3.3°C 42% 5.0 mph ESE8.0 kmh ESE 13.0 mph20.9 kmh 30.28 in1025.4 mb 0.00 in0.0 mm 0.00 in0.0 mm 0.01 in0.3 mm
01:45 PM 62.4°F16.9°C 37.8°F3.2°C 40% 3.0 mph ESE4.8 kmh ESE 10.0 mph16.1 kmh 30.28 in1025.4 mb 0.00 in0.0 mm 0.00 in0.0 mm 0.01 in0.3 mm
02:00 PM 63.1°F17.3°C 39.0°F3.9°C 41% 3.0 mph ESE4.8 kmh ESE 9.0 mph14.5 kmh 30.27 in1025.1 mb 0.00 in0.0 mm 0.00 in0.0 mm 0.01 in0.3 mm
02:15 PM 63.6°F17.6°C 38.8°F3.8°C 40% 3.0 mph E4.8 kmh E 10.0 mph16.1 kmh 30.26 in1024.7 mb 0.00 in0.0 mm 0.00 in0.0 mm 0.01 in0.3 mm
02:30 PM 64.0°F17.8°C 39.2°F4.0°C 40% 2.0 mph E3.2 kmh E 15.0 mph24.1 kmh 30.26 in1024.7 mb 0.00 in0.0 mm 0.00 in0.0 mm 0.01 in0.3 mm
02:45 PM 64.4°F18.0°C 37.6°F3.1°C 37% 2.0 mph E3.2 kmh E 8.0 mph12.9 kmh 30.25 in1024.4 mb 0.00 in0.0 mm 0.00 in0.0 mm 0.01 in0.3 mm
03:00 PM 64.2°F17.9°C 37.4°F3.0°C 37% 3.0 mph ESE4.8 kmh ESE 10.0 mph16.1 kmh 30.25 in1024.4 mb 0.00 in0.0 mm 0.00 in0.0 mm 0.01 in0.3 mm
03:15 PM 64.0°F17.8°C 37.2°F2.9°C 37% 3.0 mph E4.8 kmh E 9.0 mph14.5 kmh 30.25 in1024.4 mb 0.00 in0.0 mm 0.00 in0.0 mm 0.01 in0.3 mm
03:30 PM 64.5°F18.1°C 36.2°F2.3°C 35% 3.0 mph ESE4.8 kmh ESE 10.0 mph16.1 kmh 30.25 in1024.4 mb 0.00 in0.0 mm 0.00 in0.0 mm 0.01 in0.3 mm
03:45 PM 63.9°F17.7°C 34.2°F1.2°C 33% 3.0 mph E4.8 kmh E 10.0 mph16.1 kmh 30.24 in1024.0 mb 0.00 in0.0 mm 0.00 in0.0 mm 0.01 in0.3 mm
04:00 PM 64.0°F17.8°C 32.8°F0.4°C 31% 2.0 mph ESE3.2 kmh ESE 7.0 mph11.3 kmh 30.24 in1024.0 mb 0.00 in0.0 mm 0.00 in0.0 mm 0.01 in0.3 mm
04:15 PM 63.4°F17.4°C 33.0°F0.6°C 32% 2.0 mph E3.2 kmh E 8.0 mph12.9 kmh 30.23 in1023.7 mb 0.00 in0.0 mm 0.00 in0.0 mm 0.01 in0.3 mm
04:30 PM 63.5°F17.5°C 36.1°F2.3°C 36% 3.0 mph E4.8 kmh E 7.0 mph11.3 kmh 30.23 in1023.7 mb 0.00 in0.0 mm 0.00 in0.0 mm 0.01 in0.3 mm
04:45 PM 62.5°F16.9°C 37.8°F3.2°C 40% 1.0 mph ESE1.6 kmh ESE 5.0 mph8.0 kmh 30.23 in1023.7 mb 0.00 in0.0 mm 0.00 in0.0 mm 0.01 in0.3 mm
05:00 PM 62.5°F16.9°C 34.5°F1.4°C 35% 2.0 mph ESE3.2 kmh ESE 7.0 mph11.3 kmh 30.23 in1023.7 mb 0.00 in0.0 mm 0.00 in0.0 mm 0.01 in0.3 mm
05:15 PM 61.7°F16.5°C 38.4°F3.6°C 42% 1.0 mph ESE1.6 kmh ESE 4.0 mph6.4 kmh 30.23 in1023.7 mb 0.00 in0.0 mm 0.00 in0.0 mm 0.01 in0.3 mm
05:30 PM 61.2°F16.2°C 32.6°F0.3°C 34% 1.0 mph ESE1.6 kmh ESE 8.0 mph12.9 kmh 30.23 in1023.7 mb 0.00 in0.0 mm 0.00 in0.0 mm 0.01 in0.3 mm
05:45 PM 60.8°F16.0°C 31.5°F-0.3°C 33% 3.0 mph ESE4.8 kmh ESE 7.0 mph11.3 kmh 30.23 in1023.7 mb 0.00 in0.0 mm 0.00 in0.0 mm 0.01 in0.3 mm
06:00 PM 59.3°F15.2°C 33.7°F0.9°C 38% Calm Calm 6.0 mph9.7 kmh 30.23 in1023.7 mb 0.00 in0.0 mm 0.00 in0.0 mm 0.01 in0.3 mm
06:15 PM 57.7°F14.3°C 34.2°F1.2°C 41% 1.0 mph ENE1.6 kmh ENE 3.0 mph4.8 kmh 30.23 in1023.7 mb 0.00 in0.0 mm 0.00 in0.0 mm 0.01 in0.3 mm
06:30 PM 56.8°F13.8°C 34.5°F1.4°C 43% 1.0 mph ENE1.6 kmh ENE 5.0 mph8.0 kmh 30.23 in1023.7 mb 0.00 in0.0 mm 0.00 in0.0 mm 0.01 in0.3 mm
06:45 PM 55.7°F13.2°C 37.3°F2.9°C 50% 1.0 mph SE1.6 kmh SE 4.0 mph6.4 kmh 30.23 in1023.7 mb 0.00 in0.0 mm 0.00 in0.0 mm 0.01 in0.3 mm
07:00 PM 53.1°F11.7°C 39.6°F4.2°C 60% Calm Calm 1.0 mph1.6 kmh 30.23 in1023.7 mb 0.00 in0.0 mm 0.00 in0.0 mm 0.01 in0.3 mm
07:15 PM 51.5°F10.8°C 39.7°F4.3°C 64% Calm Calm 3.0 mph4.8 kmh 30.23 in1023.7 mb 0.00 in0.0 mm 0.00 in0.0 mm 0.01 in0.3 mm
07:30 PM 50.2°F10.1°C 38.9°F3.8°C 65% Calm Calm 3.0 mph4.8 kmh 30.23 in1023.7 mb 0.00 in0.0 mm 0.00 in0.0 mm 0.01 in0.3 mm
07:45 PM 49.6°F9.8°C 39.5°F4.2°C 68% Calm Calm -- 30.23 in1023.7 mb 0.00 in0.0 mm 0.00 in0.0 mm 0.01 in0.3 mm
08:00 PM 48.3°F9.1°C 39.0°F3.9°C 70% Calm Calm -- 30.23 in1023.7 mb 0.00 in0.0 mm 0.00 in0.0 mm 0.01 in0.3 mm
08:15 PM 47.3°F8.5°C 38.7°F3.7°C 72% Calm Calm -- 30.23 in1023.7 mb 0.00 in0.0 mm 0.00 in0.0 mm 0.01 in0.3 mm
08:30 PM 46.5°F8.1°C 38.7°F3.7°C 74% Calm Calm -- 30.23 in1023.7 mb 0.00 in0.0 mm 0.00 in0.0 mm 0.01 in0.3 mm
08:45 PM 45.6°F7.6°C 38.1°F3.4°C 75% Calm Calm -- 30.23 in1023.7 mb 0.00 in0.0 mm 0.00 in0.0 mm 0.01 in0.3 mm
09:00 PM 45.3°F7.4°C 38.5°F3.6°C 77% Calm Calm -- 30.23 in1023.7 mb 0.00 in0.0 mm 0.00 in0.0 mm 0.01 in0.3 mm
09:15 PM 44.7°F7.1°C 38.6°F3.7°C 79% Calm Calm -- 30.23 in1023.7 mb 0.00 in0.0 mm 0.00 in0.0 mm 0.01 in0.3 mm
09:30 PM 44.7°F7.1°C 39.2°F4.0°C 81% Calm Calm -- 30.23 in1023.7 mb 0.00 in0.0 mm 0.00 in0.0 mm 0.01 in0.3 mm
09:45 PM 44.3°F6.8°C 39.2°F4.0°C 82% Calm Calm -- 30.23 in1023.7 mb 0.00 in0.0 mm 0.00 in0.0 mm 0.01 in0.3 mm
10:00 PM 43.9°F6.6°C 38.8°F3.8°C 82% Calm Calm -- 30.23 in1023.7 mb 0.00 in0.0 mm 0.00 in0.0 mm 0.01 in0.3 mm
10:15 PM 43.9°F6.6°C 39.4°F4.1°C 84% Calm Calm -- 30.22 in1023.4 mb 0.00 in0.0 mm 0.00 in0.0 mm 0.01 in0.3 mm
10:30 PM 44.0°F6.7°C 39.8°F4.3°C 85% Calm Calm -- 30.22 in1023.4 mb 0.00 in0.0 mm 0.00 in0.0 mm 0.01 in0.3 mm
10:45 PM 44.2°F6.8°C 40.0°F4.4°C 85% Calm Calm -- 30.22 in1023.4 mb 0.00 in0.0 mm 0.00 in0.0 mm 0.01 in0.3 mm
11:00 PM 44.2°F6.8°C 40.3°F4.6°C 86% Calm Calm -- 30.22 in1023.4 mb 0.00 in0.0 mm 0.00 in0.0 mm 0.01 in0.3 mm
11:15 PM 44.6°F7.0°C 40.4°F4.7°C 85% Calm Calm -- 30.22 in1023.4 mb 0.00 in0.0 mm 0.00 in0.0 mm 0.01 in0.3 mm
11:30 PM 44.9°F7.2°C 40.1°F4.5°C 83% Calm Calm -- 30.21 in1023.0 mb 0.00 in0.0 mm 0.00 in0.0 mm 0.01 in0.3 mm
11:45 PM 46.3°F7.9°C 40.8°F4.9°C 81% Calm Calm 2.0 mph3.2 kmh 30.21 in1023.0 mb 0.00 in0.0 mm 0.00 in0.0 mm 0.01 in0.3 mm